sensor_id;sensor_type;location;lat;lon;timestamp;P1;durP1;ratioP1;P2;durP2;ratioP2
7501;SDS011;3792;47.740;7.606;2023-07-29T00:01:48;1.23;;;1.13;;
7501;SDS011;3792;47.740;7.606;2023-07-29T00:04:16;2.00;;;1.10;;
7501;SDS011;3792;47.740;7.606;2023-07-29T00:06:44;1.47;;;1.20;;
7501;SDS011;3792;47.740;7.606;2023-07-29T00:09:11;2.63;;;1.10;;
7501;SDS011;3792;47.740;7.606;2023-07-29T00:11:38;1.47;;;1.10;;
7501;SDS011;3792;47.740;7.606;2023-07-29T00:14:05;1.20;;;1.10;;
7501;SDS011;3792;47.740;7.606;2023-07-29T00:16:32;1.30;;;1.20;;
7501;SDS011;3792;47.740;7.606;2023-07-29T00:19:02;1.33;;;1.20;;
7501;SDS011;3792;47.740;7.606;2023-07-29T00:21:29;1.20;;;1.10;;
7501;SDS011;3792;47.740;7.606;2023-07-29T00:23:56;1.23;;;1.13;;
7501;SDS011;3792;47.740;7.606;2023-07-29T00:26:23;1.43;;;1.03;;
7501;SDS011;3792;47.740;7.606;2023-07-29T00:28:54;2.23;;;1.10;;
7501;SDS011;3792;47.740;7.606;2023-07-29T00:31:21;1.57;;;1.10;;
7501;SDS011;3792;47.740;7.606;2023-07-29T00:33:48;2.13;;;1.10;;
7501;SDS011;3792;47.740;7.606;2023-07-29T00:36:16;1.13;;;1.10;;
7501;SDS011;3792;47.740;7.606;2023-07-29T00:38:43;1.37;;;1.27;;
7501;SDS011;3792;47.740;7.606;2023-07-29T00:41:10;2.50;;;1.10;;
7501;SDS011;3792;47.740;7.606;2023-07-29T00:43:38;1.37;;;1.10;;
7501;SDS011;3792;47.740;7.606;2023-07-29T00:46:05;1.07;;;1.07;;
7501;SDS011;3792;47.740;7.606;2023-07-29T00:48:34;1.33;;;1.07;;
7501;SDS011;3792;47.740;7.606;2023-07-29T00:51:02;1.30;;;1.00;;
7501;SDS011;3792;47.740;7.606;2023-07-29T00:53:30;1.00;;;1.00;;
7501;SDS011;3792;47.740;7.606;2023-07-29T00:55:57;1.03;;;1.03;;
7501;SDS011;3792;47.740;7.606;2023-07-29T00:58:24;1.30;;;1.20;;
7501;SDS011;3792;47.740;7.606;2023-07-29T01:00:51;1.67;;;1.00;;
7501;SDS011;3792;47.740;7.606;2023-07-29T01:03:19;2.17;;;1.23;;
7501;SDS011;3792;47.740;7.606;2023-07-29T01:05:50;3.40;;;1.10;;
7501;SDS011;3792;47.740;7.606;2023-07-29T01:08:28;2.77;;;1.30;;
7501;SDS011;3792;47.740;7.606;2023-07-29T01:11:03;1.60;;;1.10;;
7501;SDS011;3792;47.740;7.606;2023-07-29T01:13:41;1.70;;;1.10;;
7501;SDS011;3792;47.740;7.606;2023-07-29T01:16:15;1.00;;;1.00;;
7501;SDS011;3792;47.740;7.606;2023-07-29T01:18:48;1.00;;;0.90;;
7501;SDS011;3792;47.740;7.606;2023-07-29T01:21:19;2.13;;;1.20;;
7501;SDS011;3792;47.740;7.606;2023-07-29T01:23:50;2.13;;;1.23;;
7501;SDS011;3792;47.740;7.606;2023-07-29T01:26:19;1.13;;;1.10;;
7501;SDS011;3792;47.740;7.606;2023-07-29T01:28:46;1.53;;;1.20;;
7501;SDS011;3792;47.740;7.606;2023-07-29T01:31:13;1.80;;;1.43;;
7501;SDS011;3792;47.740;7.606;2023-07-29T01:33:48;1.33;;;1.27;;
7501;SDS011;3792;47.740;7.606;2023-07-29T01:36:25;2.00;;;1.20;;
7501;SDS011;3792;47.740;7.606;2023-07-29T01:38:57;1.10;;;1.10;;
7501;SDS011;3792;47.740;7.606;2023-07-29T01:41:25;1.20;;;1.20;;
7501;SDS011;3792;47.740;7.606;2023-07-29T01:43:53;1.97;;;1.27;;
7501;SDS011;3792;47.740;7.606;2023-07-29T01:46:22;1.47;;;1.37;;
7501;SDS011;3792;47.740;7.606;2023-07-29T01:48:49;2.23;;;1.00;;
7501;SDS011;3792;47.740;7.606;2023-07-29T01:51:16;1.37;;;1.27;;
7501;SDS011;3792;47.740;7.606;2023-07-29T01:53:43;2.63;;;1.30;;
7501;SDS011;3792;47.740;7.606;2023-07-29T01:56:12;2.23;;;1.33;;
7501;SDS011;3792;47.740;7.606;2023-07-29T01:58:39;1.37;;;1.27;;
7501;SDS011;3792;47.740;7.606;2023-07-29T02:01:06;1.63;;;1.30;;
7501;SDS011;3792;47.740;7.606;2023-07-29T02:03:33;3.37;;;1.40;;
7501;SDS011;3792;47.740;7.606;2023-07-29T02:06:00;1.57;;;1.47;;
7501;SDS011;3792;47.740;7.606;2023-07-29T02:08:27;1.10;;;1.10;;
7501;SDS011;3792;47.740;7.606;2023-07-29T02:10:54;2.00;;;1.30;;
7501;SDS011;3792;47.740;7.606;2023-07-29T02:13:23;2.00;;;1.43;;
7501;SDS011;3792;47.740;7.606;2023-07-29T02:15:50;3.67;;;1.47;;
7501;SDS011;3792;47.740;7.606;2023-07-29T02:18:17;1.73;;;1.30;;
7501;SDS011;3792;47.740;7.606;2023-07-29T02:20:44;1.50;;;1.40;;
7501;SDS011;3792;47.740;7.606;2023-07-29T02:23:14;2.17;;;1.43;;
7501;SDS011;3792;47.740;7.606;2023-07-29T02:25:42;1.50;;;1.40;;
7501;SDS011;3792;47.740;7.606;2023-07-29T02:28:09;1.20;;;1.10;;
7501;SDS011;3792;47.740;7.606;2023-07-29T02:30:41;1.93;;;1.00;;
7501;SDS011;3792;47.740;7.606;2023-07-29T02:33:10;1.40;;;1.30;;
7501;SDS011;3792;47.740;7.606;2023-07-29T02:35:37;1.63;;;1.53;;
7501;SDS011;3792;47.740;7.606;2023-07-29T02:38:04;1.20;;;1.20;;
7501;SDS011;3792;47.740;7.606;2023-07-29T02:40:31;1.43;;;1.33;;
7501;SDS011;3792;47.740;7.606;2023-07-29T02:42:58;1.37;;;1.27;;
7501;SDS011;3792;47.740;7.606;2023-07-29T02:45:25;2.07;;;1.10;;
7501;SDS011;3792;47.740;7.606;2023-07-29T02:47:53;1.00;;;1.00;;
7501;SDS011;3792;47.740;7.606;2023-07-29T02:50:20;1.97;;;1.53;;
7501;SDS011;3792;47.740;7.606;2023-07-29T02:52:47;2.87;;;1.40;;
7501;SDS011;3792;47.740;7.606;2023-07-29T02:55:14;1.53;;;1.43;;
7501;SDS011;3792;47.740;7.606;2023-07-29T02:57:41;1.70;;;1.10;;
7501;SDS011;3792;47.740;7.606;2023-07-29T03:00:09;2.70;;;1.50;;
7501;SDS011;3792;47.740;7.606;2023-07-29T03:02:37;1.60;;;1.50;;
7501;SDS011;3792;47.740;7.606;2023-07-29T03:05:06;1.50;;;1.40;;
7501;SDS011;3792;47.740;7.606;2023-07-29T03:07:33;1.33;;;1.23;;
7501;SDS011;3792;47.740;7.606;2023-07-29T03:10:00;1.50;;;1.40;;
7501;SDS011;3792;47.740;7.606;2023-07-29T03:12:27;1.43;;;1.33;;
7501;SDS011;3792;47.740;7.606;2023-07-29T03:14:54;2.07;;;1.50;;
7501;SDS011;3792;47.740;7.606;2023-07-29T03:17:21;1.57;;;1.47;;
7501;SDS011;3792;47.740;7.606;2023-07-29T03:19:49;1.63;;;1.33;;
7501;SDS011;3792;47.740;7.606;2023-07-29T03:22:17;1.70;;;1.60;;
7501;SDS011;3792;47.740;7.606;2023-07-29T03:24:44;1.60;;;1.30;;
7501;SDS011;3792;47.740;7.606;2023-07-29T03:27:11;3.90;;;1.60;;
7501;SDS011;3792;47.740;7.606;2023-07-29T03:29:40;1.90;;;1.60;;
7501;SDS011;3792;47.740;7.606;2023-07-29T03:32:07;2.30;;;1.40;;
7501;SDS011;3792;47.740;7.606;2023-07-29T03:34:34;2.40;;;1.80;;
7501;SDS011;3792;47.740;7.606;2023-07-29T03:37:01;2.93;;;1.53;;
7501;SDS011;3792;47.740;7.606;2023-07-29T03:39:30;2.87;;;1.50;;
7501;SDS011;3792;47.740;7.606;2023-07-29T03:41:57;1.40;;;1.30;;
7501;SDS011;3792;47.740;7.606;2023-07-29T03:44:24;1.93;;;1.70;;
7501;SDS011;3792;47.740;7.606;2023-07-29T03:46:51;1.93;;;1.60;;
7501;SDS011;3792;47.740;7.606;2023-07-29T03:49:18;4.73;;;1.47;;
7501;SDS011;3792;47.740;7.606;2023-07-29T03:51:45;4.07;;;1.90;;
7501;SDS011;3792;47.740;7.606;2023-07-29T03:54:12;1.67;;;1.43;;
7501;SDS011;3792;47.740;7.606;2023-07-29T03:56:41;1.70;;;1.60;;
7501;SDS011;3792;47.740;7.606;2023-07-29T03:59:08;1.63;;;1.53;;
7501;SDS011;3792;47.740;7.606;2023-07-29T04:01:35;3.10;;;1.50;;
7501;SDS011;3792;47.740;7.606;2023-07-29T04:04:02;2.20;;;1.70;;
7501;SDS011;3792;47.740;7.606;2023-07-29T04:06:29;3.03;;;1.67;;
7501;SDS011;3792;47.740;7.606;2023-07-29T04:08:57;2.37;;;1.60;;
7501;SDS011;3792;47.740;7.606;2023-07-29T04:11:24;2.63;;;1.60;;
7501;SDS011;3792;47.740;7.606;2023-07-29T04:13:53;2.07;;;1.87;;
7501;SDS011;3792;47.740;7.606;2023-07-29T04:16:20;2.10;;;1.90;;
7501;SDS011;3792;47.740;7.606;2023-07-29T04:18:47;4.40;;;1.80;;
7501;SDS011;3792;47.740;7.606;2023-07-29T04:21:14;2.13;;;1.70;;
7501;SDS011;3792;47.740;7.606;2023-07-29T04:23:41;2.10;;;1.77;;
7501;SDS011;3792;47.740;7.606;2023-07-29T04:26:08;1.43;;;1.40;;
7501;SDS011;3792;47.740;7.606;2023-07-29T04:28:35;1.63;;;1.50;;
7501;SDS011;3792;47.740;7.606;2023-07-29T04:31:02;1.90;;;1.80;;
7501;SDS011;3792;47.740;7.606;2023-07-29T04:33:29;3.77;;;1.60;;
7501;SDS011;3792;47.740;7.606;2023-07-29T04:35:56;2.63;;;1.63;;
7501;SDS011;3792;47.740;7.606;2023-07-29T04:38:26;1.80;;;1.70;;
7501;SDS011;3792;47.740;7.606;2023-07-29T04:40:56;2.23;;;1.67;;
7501;SDS011;3792;47.740;7.606;2023-07-29T04:43:26;1.70;;;1.60;;
7501;SDS011;3792;47.740;7.606;2023-07-29T04:45:54;1.70;;;1.60;;
7501;SDS011;3792;47.740;7.606;2023-07-29T04:48:22;1.80;;;1.70;;
7501;SDS011;3792;47.740;7.606;2023-07-29T04:50:50;1.90;;;1.60;;
7501;SDS011;3792;47.740;7.606;2023-07-29T04:53:17;2.23;;;1.80;;
7501;SDS011;3792;47.740;7.606;2023-07-29T04:55:44;2.07;;;1.70;;
7501;SDS011;3792;47.740;7.606;2023-07-29T04:58:11;1.70;;;1.53;;
7501;SDS011;3792;47.740;7.606;2023-07-29T05:00:38;2.23;;;1.60;;
7501;SDS011;3792;47.740;7.606;2023-07-29T05:03:05;1.83;;;1.50;;
7501;SDS011;3792;47.740;7.606;2023-07-29T05:05:34;1.60;;;1.50;;
7501;SDS011;3792;47.740;7.606;2023-07-29T05:08:01;4.23;;;1.90;;
7501;SDS011;3792;47.740;7.606;2023-07-29T05:10:28;2.30;;;1.70;;
7501;SDS011;3792;47.740;7.606;2023-07-29T05:12:55;4.73;;;1.80;;
7501;SDS011;3792;47.740;7.606;2023-07-29T05:15:22;2.10;;;1.60;;
7501;SDS011;3792;47.740;7.606;2023-07-29T05:17:49;1.77;;;1.67;;
7501;SDS011;3792;47.740;7.606;2023-07-29T05:20:17;1.70;;;1.60;;
7501;SDS011;3792;47.740;7.606;2023-07-29T05:22:45;3.70;;;1.77;;
7501;SDS011;3792;47.740;7.606;2023-07-29T05:25:12;1.80;;;1.70;;
7501;SDS011;3792;47.740;7.606;2023-07-29T05:27:39;3.50;;;1.60;;
7501;SDS011;3792;47.740;7.606;2023-07-29T05:30:07;2.70;;;1.60;;
7501;SDS011;3792;47.740;7.606;2023-07-29T05:32:34;1.60;;;1.60;;
7501;SDS011;3792;47.740;7.606;2023-07-29T05:35:01;2.73;;;1.80;;
7501;SDS011;3792;47.740;7.606;2023-07-29T05:37:29;2.03;;;1.80;;
7501;SDS011;3792;47.740;7.606;2023-07-29T05:39:57;1.87;;;1.60;;
7501;SDS011;3792;47.740;7.606;2023-07-29T05:42:25;1.80;;;1.70;;
7501;SDS011;3792;47.740;7.606;2023-07-29T05:44:52;2.10;;;2.00;;
7501;SDS011;3792;47.740;7.606;2023-07-29T05:47:22;1.70;;;1.60;;
7501;SDS011;3792;47.740;7.606;2023-07-29T05:49:49;3.10;;;1.63;;
7501;SDS011;3792;47.740;7.606;2023-07-29T05:52:16;2.07;;;1.80;;
7501;SDS011;3792;47.740;7.606;2023-07-29T05:54:44;1.97;;;1.83;;
7501;SDS011;3792;47.740;7.606;2023-07-29T05:57:12;1.83;;;1.73;;
7501;SDS011;3792;47.740;7.606;2023-07-29T05:59:40;1.70;;;1.60;;
7501;SDS011;3792;47.740;7.606;2023-07-29T06:02:07;2.07;;;1.87;;
7501;SDS011;3792;47.740;7.606;2023-07-29T06:04:34;5.50;;;1.77;;
7501;SDS011;3792;47.740;7.606;2023-07-29T06:07:01;3.37;;;1.73;;
7501;SDS011;3792;47.740;7.606;2023-07-29T06:09:28;2.10;;;1.80;;
7501;SDS011;3792;47.740;7.606;2023-07-29T06:11:55;3.80;;;1.80;;
7501;SDS011;3792;47.740;7.606;2023-07-29T06:14:23;9.67;;;2.40;;
7501;SDS011;3792;47.740;7.606;2023-07-29T06:16:50;2.63;;;1.97;;
7501;SDS011;3792;47.740;7.606;2023-07-29T06:19:17;1.83;;;1.73;;
7501;SDS011;3792;47.740;7.606;2023-07-29T06:21:46;2.20;;;1.70;;
7501;SDS011;3792;47.740;7.606;2023-07-29T06:24:13;2.93;;;2.03;;
7501;SDS011;3792;47.740;7.606;2023-07-29T06:26:41;3.47;;;2.00;;
7501;SDS011;3792;47.740;7.606;2023-07-29T06:29:08;4.17;;;1.80;;
7501;SDS011;3792;47.740;7.606;2023-07-29T06:31:49;5.70;;;1.60;;
7501;SDS011;3792;47.740;7.606;2023-07-29T06:34:17;2.57;;;1.80;;
7501;SDS011;3792;47.740;7.606;2023-07-29T06:36:44;2.00;;;1.80;;
7501;SDS011;3792;47.740;7.606;2023-07-29T06:39:12;3.10;;;1.63;;
7501;SDS011;3792;47.740;7.606;2023-07-29T06:41:39;1.97;;;1.80;;
7501;SDS011;3792;47.740;7.606;2023-07-29T06:44:06;1.70;;;1.60;;
7501;SDS011;3792;47.740;7.606;2023-07-29T06:46:33;1.70;;;1.60;;
7501;SDS011;3792;47.740;7.606;2023-07-29T06:49:01;2.83;;;1.83;;
7501;SDS011;3792;47.740;7.606;2023-07-29T06:51:29;2.23;;;1.73;;
7501;SDS011;3792;47.740;7.606;2023-07-29T06:53:59;2.60;;;1.57;;
7501;SDS011;3792;47.740;7.606;2023-07-29T06:56:26;2.00;;;1.90;;
7501;SDS011;3792;47.740;7.606;2023-07-29T06:58:53;2.07;;;1.70;;
7501;SDS011;3792;47.740;7.606;2023-07-29T07:01:25;2.60;;;1.80;;
7501;SDS011;3792;47.740;7.606;2023-07-29T07:04:14;1.93;;;1.83;;
7501;SDS011;3792;47.740;7.606;2023-07-29T07:06:41;4.37;;;1.87;;
7501;SDS011;3792;47.740;7.606;2023-07-29T07:09:08;1.90;;;1.80;;
7501;SDS011;3792;47.740;7.606;2023-07-29T07:11:35;1.90;;;1.80;;
7501;SDS011;3792;47.740;7.606;2023-07-29T07:14:02;2.30;;;1.80;;
7501;SDS011;3792;47.740;7.606;2023-07-29T07:16:29;2.10;;;2.00;;
7501;SDS011;3792;47.740;7.606;2023-07-29T07:18:56;2.33;;;1.70;;
7501;SDS011;3792;47.740;7.606;2023-07-29T07:21:25;2.60;;;1.87;;
7501;SDS011;3792;47.740;7.606;2023-07-29T07:23:52;2.10;;;1.90;;
7501;SDS011;3792;47.740;7.606;2023-07-29T07:26:19;2.13;;;2.00;;
7501;SDS011;3792;47.740;7.606;2023-07-29T07:28:46;1.70;;;1.60;;
7501;SDS011;3792;47.740;7.606;2023-07-29T07:31:13;2.30;;;1.83;;
7501;SDS011;3792;47.740;7.606;2023-07-29T07:33:43;1.80;;;1.70;;
7501;SDS011;3792;47.740;7.606;2023-07-29T07:36:10;4.07;;;2.00;;
7501;SDS011;3792;47.740;7.606;2023-07-29T07:38:39;1.87;;;1.77;;
7501;SDS011;3792;47.740;7.606;2023-07-29T07:41:06;1.70;;;1.53;;
7501;SDS011;3792;47.740;7.606;2023-07-29T07:43:34;2.07;;;1.87;;
7501;SDS011;3792;47.740;7.606;2023-07-29T07:46:01;2.30;;;1.80;;
7501;SDS011;3792;47.740;7.606;2023-07-29T07:48:30;1.87;;;1.70;;
7501;SDS011;3792;47.740;7.606;2023-07-29T07:50:58;1.73;;;1.63;;
7501;SDS011;3792;47.740;7.606;2023-07-29T07:53:25;3.23;;;1.70;;
7501;SDS011;3792;47.740;7.606;2023-07-29T07:55:55;1.70;;;1.60;;
7501;SDS011;3792;47.740;7.606;2023-07-29T07:58:22;3.77;;;1.60;;
7501;SDS011;3792;47.740;7.606;2023-07-29T08:00:49;1.83;;;1.43;;
7501;SDS011;3792;47.740;7.606;2023-07-29T08:03:17;2.07;;;1.90;;
7501;SDS011;3792;47.740;7.606;2023-07-29T08:05:44;3.03;;;1.80;;
7501;SDS011;3792;47.740;7.606;2023-07-29T08:08:11;3.17;;;1.77;;
7501;SDS011;3792;47.740;7.606;2023-07-29T08:10:38;2.90;;;1.73;;
7501;SDS011;3792;47.740;7.606;2023-07-29T08:13:06;2.90;;;1.80;;
7501;SDS011;3792;47.740;7.606;2023-07-29T08:15:33;3.27;;;1.87;;
7501;SDS011;3792;47.740;7.606;2023-07-29T08:18:00;5.17;;;1.97;;
7501;SDS011;3792;47.740;7.606;2023-07-29T08:20:27;2.40;;;1.80;;
7501;SDS011;3792;47.740;7.606;2023-07-29T08:22:54;2.20;;;1.83;;
7501;SDS011;3792;47.740;7.606;2023-07-29T08:25:21;3.50;;;2.00;;
7501;SDS011;3792;47.740;7.606;2023-07-29T08:27:48;2.60;;;1.80;;
7501;SDS011;3792;47.740;7.606;2023-07-29T08:30:17;2.90;;;2.00;;
7501;SDS011;3792;47.740;7.606;2023-07-29T08:32:44;3.67;;;2.27;;
7501;SDS011;3792;47.740;7.606;2023-07-29T08:35:11;2.33;;;2.10;;
7501;SDS011;3792;47.740;7.606;2023-07-29T08:37:38;1.70;;;1.60;;
7501;SDS011;3792;47.740;7.606;2023-07-29T08:40:05;3.90;;;1.97;;
7501;SDS011;3792;47.740;7.606;2023-07-29T08:42:33;2.40;;;2.20;;
7501;SDS011;3792;47.740;7.606;2023-07-29T08:45:06;3.60;;;2.40;;
7501;SDS011;3792;47.740;7.606;2023-07-29T08:47:35;2.63;;;2.03;;
7501;SDS011;3792;47.740;7.606;2023-07-29T08:50:03;1.90;;;1.70;;
7501;SDS011;3792;47.740;7.606;2023-07-29T08:52:31;2.10;;;1.83;;
7501;SDS011;3792;47.740;7.606;2023-07-29T08:54:59;2.80;;;2.10;;
7501;SDS011;3792;47.740;7.606;2023-07-29T08:57:27;1.90;;;1.80;;
7501;SDS011;3792;47.740;7.606;2023-07-29T08:59:55;2.57;;;2.00;;
7501;SDS011;3792;47.740;7.606;2023-07-29T09:02:24;2.63;;;2.00;;
7501;SDS011;3792;47.740;7.606;2023-07-29T09:04:52;2.27;;;1.73;;
7501;SDS011;3792;47.740;7.606;2023-07-29T09:07:19;1.80;;;1.70;;
7501;SDS011;3792;47.740;7.606;2023-07-29T09:09:47;1.90;;;1.80;;
7501;SDS011;3792;47.740;7.606;2023-07-29T09:12:14;3.93;;;1.97;;
7501;SDS011;3792;47.740;7.606;2023-07-29T09:14:41;2.07;;;1.83;;
7501;SDS011;3792;47.740;7.606;2023-07-29T09:17:08;2.90;;;2.27;;
7501;SDS011;3792;47.740;7.606;2023-07-29T09:19:36;2.27;;;2.07;;
7501;SDS011;3792;47.740;7.606;2023-07-29T09:22:05;2.33;;;2.17;;
7501;SDS011;3792;47.740;7.606;2023-07-29T09:24:44;2.70;;;2.03;;
7501;SDS011;3792;47.740;7.606;2023-07-29T09:27:17;2.60;;;2.40;;
7501;SDS011;3792;47.740;7.606;2023-07-29T09:29:51;2.53;;;2.37;;
7501;SDS011;3792;47.740;7.606;2023-07-29T09:32:19;2.13;;;1.93;;
7501;SDS011;3792;47.740;7.606;2023-07-29T09:34:47;3.07;;;2.80;;
7501;SDS011;3792;47.740;7.606;2023-07-29T09:37:18;3.40;;;2.50;;
7501;SDS011;3792;47.740;7.606;2023-07-29T09:39:48;2.87;;;2.30;;
7501;SDS011;3792;47.740;7.606;2023-07-29T09:42:17;3.20;;;2.10;;
7501;SDS011;3792;47.740;7.606;2023-07-29T09:44:45;3.07;;;2.77;;
7501;SDS011;3792;47.740;7.606;2023-07-29T09:47:18;2.67;;;2.47;;
7501;SDS011;3792;47.740;7.606;2023-07-29T09:49:47;2.73;;;2.53;;
7501;SDS011;3792;47.740;7.606;2023-07-29T09:52:15;2.93;;;2.30;;
7501;SDS011;3792;47.740;7.606;2023-07-29T09:54:44;3.97;;;2.40;;
7501;SDS011;3792;47.740;7.606;2023-07-29T09:57:12;4.60;;;2.53;;
7501;SDS011;3792;47.740;7.606;2023-07-29T09:59:41;2.67;;;2.50;;
7501;SDS011;3792;47.740;7.606;2023-07-29T10:02:09;2.70;;;2.50;;
7501;SDS011;3792;47.740;7.606;2023-07-29T10:04:40;2.33;;;2.13;;
7501;SDS011;3792;47.740;7.606;2023-07-29T10:07:08;4.27;;;2.67;;
7501;SDS011;3792;47.740;7.606;2023-07-29T10:09:36;9.40;;;5.80;;
7501;SDS011;3792;47.740;7.606;2023-07-29T10:12:07;3.00;;;2.80;;
7501;SDS011;3792;47.740;7.606;2023-07-29T10:14:36;3.23;;;2.93;;
7501;SDS011;3792;47.740;7.606;2023-07-29T10:17:05;5.10;;;3.27;;
7501;SDS011;3792;47.740;7.606;2023-07-29T10:19:32;3.50;;;2.60;;
7501;SDS011;3792;47.740;7.606;2023-07-29T10:22:02;3.00;;;2.80;;
7501;SDS011;3792;47.740;7.606;2023-07-29T10:24:30;3.10;;;2.73;;
7501;SDS011;3792;47.740;7.606;2023-07-29T10:27:00;2.80;;;2.60;;
7501;SDS011;3792;47.740;7.606;2023-07-29T10:29:30;3.20;;;2.90;;
7501;SDS011;3792;47.740;7.606;2023-07-29T10:31:58;3.37;;;3.10;;
7501;SDS011;3792;47.740;7.606;2023-07-29T10:34:29;3.60;;;3.30;;
7501;SDS011;3792;47.740;7.606;2023-07-29T10:36:57;3.70;;;3.07;;
7501;SDS011;3792;47.740;7.606;2023-07-29T10:39:25;3.13;;;2.93;;
7501;SDS011;3792;47.740;7.606;2023-07-29T10:41:56;3.83;;;3.43;;
7501;SDS011;3792;47.740;7.606;2023-07-29T10:47:14;3.40;;;3.20;;
7501;SDS011;3792;47.740;7.606;2023-07-29T10:49:42;3.60;;;3.30;;
7501;SDS011;3792;47.740;7.606;2023-07-29T10:52:12;4.17;;;3.07;;
7501;SDS011;3792;47.740;7.606;2023-07-29T10:54:43;3.07;;;2.83;;
7501;SDS011;3792;47.740;7.606;2023-07-29T10:57:14;3.30;;;3.00;;
7501;SDS011;3792;47.740;7.606;2023-07-29T10:59:52;3.47;;;3.17;;
7501;SDS011;3792;47.740;7.606;2023-07-29T11:02:20;3.10;;;2.73;;
7501;SDS011;3792;47.740;7.606;2023-07-29T11:04:54;3.10;;;2.80;;
7501;SDS011;3792;47.740;7.606;2023-07-29T11:07:21;3.40;;;3.07;;
7501;SDS011;3792;47.740;7.606;2023-07-29T11:09:59;3.07;;;2.87;;
7501;SDS011;3792;47.740;7.606;2023-07-29T11:12:41;3.30;;;3.00;;
7501;SDS011;3792;47.740;7.606;2023-07-29T11:15:22;4.03;;;2.73;;
7501;SDS011;3792;47.740;7.606;2023-07-29T11:17:51;3.17;;;2.90;;
7501;SDS011;3792;47.740;7.606;2023-07-29T11:20:21;3.07;;;2.73;;
7501;SDS011;3792;47.740;7.606;2023-07-29T11:22:49;3.57;;;3.13;;
7501;SDS011;3792;47.740;7.606;2023-07-29T11:25:16;3.23;;;2.97;;
7501;SDS011;3792;47.740;7.606;2023-07-29T11:27:44;2.83;;;2.63;;
7501;SDS011;3792;47.740;7.606;2023-07-29T11:30:13;3.23;;;3.03;;
7501;SDS011;3792;47.740;7.606;2023-07-29T11:32:43;4.10;;;3.00;;
7501;SDS011;3792;47.740;7.606;2023-07-29T11:35:11;3.00;;;2.80;;
7501;SDS011;3792;47.740;7.606;2023-07-29T11:37:40;3.33;;;2.83;;
7501;SDS011;3792;47.740;7.606;2023-07-29T11:40:12;4.70;;;3.03;;
7501;SDS011;3792;47.740;7.606;2023-07-29T11:42:40;5.80;;;3.00;;
7501;SDS011;3792;47.740;7.606;2023-07-29T11:45:08;3.97;;;2.60;;
7501;SDS011;3792;47.740;7.606;2023-07-29T11:47:36;2.93;;;2.53;;
7501;SDS011;3792;47.740;7.606;2023-07-29T11:50:05;4.83;;;2.60;;
7501;SDS011;3792;47.740;7.606;2023-07-29T11:52:34;2.77;;;2.57;;
7501;SDS011;3792;47.740;7.606;2023-07-29T11:55:02;2.60;;;2.27;;
7501;SDS011;3792;47.740;7.606;2023-07-29T11:57:31;2.77;;;2.50;;
7501;SDS011;3792;47.740;7.606;2023-07-29T11:59:59;2.53;;;2.30;;
7501;SDS011;3792;47.740;7.606;2023-07-29T12:02:29;2.60;;;2.40;;
7501;SDS011;3792;47.740;7.606;2023-07-29T12:04:57;2.80;;;2.43;;
7501;SDS011;3792;47.740;7.606;2023-07-29T12:07:25;2.60;;;2.40;;
7501;SDS011;3792;47.740;7.606;2023-07-29T12:09:53;2.90;;;2.60;;
7501;SDS011;3792;47.740;7.606;2023-07-29T12:12:21;2.37;;;2.17;;
7501;SDS011;3792;47.740;7.606;2023-07-29T12:14:49;2.50;;;2.30;;
7501;SDS011;3792;47.740;7.606;2023-07-29T12:17:16;2.20;;;2.10;;
7501;SDS011;3792;47.740;7.606;2023-07-29T12:19:45;2.40;;;2.20;;
7501;SDS011;3792;47.740;7.606;2023-07-29T12:22:12;2.40;;;2.20;;
7501;SDS011;3792;47.740;7.606;2023-07-29T12:24:45;2.20;;;2.00;;
7501;SDS011;3792;47.740;7.606;2023-07-29T12:27:12;2.67;;;2.47;;
7501;SDS011;3792;47.740;7.606;2023-07-29T12:29:40;2.57;;;2.27;;
7501;SDS011;3792;47.740;7.606;2023-07-29T12:32:08;2.17;;;2.00;;
7501;SDS011;3792;47.740;7.606;2023-07-29T12:34:37;2.53;;;2.33;;
7501;SDS011;3792;47.740;7.606;2023-07-29T12:37:06;3.40;;;2.70;;
7501;SDS011;3792;47.740;7.606;2023-07-29T12:39:34;3.23;;;2.90;;
7501;SDS011;3792;47.740;7.606;2023-07-29T12:42:07;2.30;;;2.10;;
7501;SDS011;3792;47.740;7.606;2023-07-29T12:44:35;2.00;;;1.90;;
7501;SDS011;3792;47.740;7.606;2023-07-29T12:47:03;2.47;;;2.00;;
7501;SDS011;3792;47.740;7.606;2023-07-29T12:49:33;1.97;;;1.87;;
7501;SDS011;3792;47.740;7.606;2023-07-29T12:52:02;2.17;;;2.07;;
7501;SDS011;3792;47.740;7.606;2023-07-29T12:54:30;2.47;;;2.27;;
7501;SDS011;3792;47.740;7.606;2023-07-29T12:56:57;2.57;;;1.80;;
7501;SDS011;3792;47.740;7.606;2023-07-29T12:59:25;2.10;;;2.00;;
7501;SDS011;3792;47.740;7.606;2023-07-29T13:01:52;2.40;;;2.20;;
7501;SDS011;3792;47.740;7.606;2023-07-29T13:04:22;2.10;;;2.00;;
7501;SDS011;3792;47.740;7.606;2023-07-29T13:06:50;2.50;;;2.27;;
7501;SDS011;3792;47.740;7.606;2023-07-29T13:09:17;1.93;;;1.80;;
7501;SDS011;3792;47.740;7.606;2023-07-29T13:11:44;2.07;;;1.90;;
7501;SDS011;3792;47.740;7.606;2023-07-29T13:14:11;1.90;;;1.80;;
7501;SDS011;3792;47.740;7.606;2023-07-29T13:16:39;2.00;;;1.90;;
7501;SDS011;3792;47.740;7.606;2023-07-29T13:19:06;2.43;;;2.20;;
7501;SDS011;3792;47.740;7.606;2023-07-29T13:21:33;2.60;;;2.40;;
7501;SDS011;3792;47.740;7.606;2023-07-29T13:24:00;2.10;;;1.90;;
7501;SDS011;3792;47.740;7.606;2023-07-29T13:26:27;2.00;;;1.90;;
7501;SDS011;3792;47.740;7.606;2023-07-29T13:28:54;3.03;;;2.23;;
7501;SDS011;3792;47.740;7.606;2023-07-29T13:31:21;3.50;;;2.10;;
7501;SDS011;3792;47.740;7.606;2023-07-29T13:33:50;4.50;;;2.20;;
7501;SDS011;3792;47.740;7.606;2023-07-29T13:36:17;2.30;;;2.20;;
7501;SDS011;3792;47.740;7.606;2023-07-29T13:38:44;2.17;;;2.07;;
7501;SDS011;3792;47.740;7.606;2023-07-29T13:41:11;3.40;;;2.27;;
7501;SDS011;3792;47.740;7.606;2023-07-29T13:43:38;3.33;;;2.50;;
7501;SDS011;3792;47.740;7.606;2023-07-29T13:46:05;2.53;;;2.43;;
7501;SDS011;3792;47.740;7.606;2023-07-29T13:48:31;2.53;;;2.07;;
7501;SDS011;3792;47.740;7.606;2023-07-29T13:51:02;2.40;;;2.20;;
7501;SDS011;3792;47.740;7.606;2023-07-29T13:53:29;3.60;;;2.23;;
7501;SDS011;3792;47.740;7.606;2023-07-29T13:55:56;4.50;;;2.60;;
7501;SDS011;3792;47.740;7.606;2023-07-29T13:58:23;2.50;;;2.30;;
7501;SDS011;3792;47.740;7.606;2023-07-29T14:00:51;2.80;;;2.60;;
7501;SDS011;3792;47.740;7.606;2023-07-29T14:03:18;2.83;;;2.63;;
7501;SDS011;3792;47.740;7.606;2023-07-29T14:05:45;3.10;;;2.10;;
7501;SDS011;3792;47.740;7.606;2023-07-29T14:08:14;2.30;;;2.20;;
7501;SDS011;3792;47.740;7.606;2023-07-29T14:10:41;3.00;;;2.37;;
7501;SDS011;3792;47.740;7.606;2023-07-29T14:13:08;2.53;;;2.33;;
7501;SDS011;3792;47.740;7.606;2023-07-29T14:15:35;2.30;;;2.10;;
7501;SDS011;3792;47.740;7.606;2023-07-29T14:18:02;2.53;;;2.20;;
7501;SDS011;3792;47.740;7.606;2023-07-29T14:20:29;3.10;;;2.30;;
7501;SDS011;3792;47.740;7.606;2023-07-29T14:22:56;2.77;;;2.43;;
7501;SDS011;3792;47.740;7.606;2023-07-29T14:25:24;2.73;;;2.20;;
7501;SDS011;3792;47.740;7.606;2023-07-29T14:27:52;2.30;;;2.03;;
7501;SDS011;3792;47.740;7.606;2023-07-29T14:30:19;2.20;;;1.93;;
7501;SDS011;3792;47.740;7.606;2023-07-29T14:32:46;2.00;;;1.80;;
7501;SDS011;3792;47.740;7.606;2023-07-29T14:35:13;2.97;;;2.00;;
7501;SDS011;3792;47.740;7.606;2023-07-29T14:37:40;2.60;;;1.80;;
7501;SDS011;3792;47.740;7.606;2023-07-29T14:40:07;2.20;;;2.00;;
7501;SDS011;3792;47.740;7.606;2023-07-29T14:42:36;2.80;;;2.60;;
7501;SDS011;3792;47.740;7.606;2023-07-29T14:45:03;2.83;;;2.30;;
7501;SDS011;3792;47.740;7.606;2023-07-29T14:47:31;2.20;;;2.00;;
7501;SDS011;3792;47.740;7.606;2023-07-29T14:49:59;2.63;;;2.43;;
7501;SDS011;3792;47.740;7.606;2023-07-29T14:52:26;2.47;;;2.27;;
7501;SDS011;3792;47.740;7.606;2023-07-29T14:54:56;2.53;;;2.40;;
7501;SDS011;3792;47.740;7.606;2023-07-29T14:57:24;4.03;;;2.30;;
7501;SDS011;3792;47.740;7.606;2023-07-29T14:59:52;2.90;;;2.70;;
7501;SDS011;3792;47.740;7.606;2023-07-29T15:02:20;2.53;;;2.40;;
7501;SDS011;3792;47.740;7.606;2023-07-29T15:04:47;2.20;;;2.10;;
7501;SDS011;3792;47.740;7.606;2023-07-29T15:07:14;2.43;;;2.23;;
7501;SDS011;3792;47.740;7.606;2023-07-29T15:09:42;2.13;;;2.03;;
7501;SDS011;3792;47.740;7.606;2023-07-29T15:12:09;3.73;;;2.70;;
7501;SDS011;3792;47.740;7.606;2023-07-29T15:14:38;2.70;;;2.33;;
7501;SDS011;3792;47.740;7.606;2023-07-29T15:17:09;2.43;;;2.20;;
7501;SDS011;3792;47.740;7.606;2023-07-29T15:19:36;2.70;;;2.50;;
7501;SDS011;3792;47.740;7.606;2023-07-29T15:22:04;3.77;;;3.00;;
7501;SDS011;3792;47.740;7.606;2023-07-29T15:24:31;2.83;;;2.63;;